Time;durP1;ratioP1;P1;durP2;ratioP2;P2;SDS_P1;SDS_P2;PMS_P1;PMS_P2;Temp;Humidity;BMP_temperature;BMP_pressure;BME280_temperature;BME280_humidity;BME280_pressure;Samples;Min_cycle;Max_cycle;Signal;HPM_P1;HPM_P2
2021/07/29 00:01:04;;;;;;;18.48;2.50;;;15.90;99.90;;;;;;4985233;28;20221;-64
2021/07/29 00:03:31;;;;;;;11.00;2.22;;;15.90;99.90;;;;;;5009794;28;20223;-66
2021/07/29 00:05:58;;;;;;;11.88;2.40;;;15.90;99.90;;;;;;5009923;28;20204;-65
2021/07/29 00:08:26;;;;;;;12.27;2.13;;;15.90;99.90;;;;;;5008314;28;20200;-66
2021/07/29 00:10:53;;;;;;;8.93;1.90;;;15.90;99.90;;;;;;5009948;28;20208;-66
2021/07/29 00:13:20;;;;;;;12.68;1.80;;;15.90;99.90;;;;;;5010738;28;20215;-66
2021/07/29 00:15:47;;;;;;;10.80;1.70;;;15.90;99.90;;;;;;5008251;28;20279;-67
2021/07/29 00:20:58;;;;;;;12.15;1.60;;;15.80;99.90;;;;;;5011705;28;20197;-66
2021/07/29 00:23:27;;;;;;;11.15;2.10;;;15.90;99.90;;;;;;5012993;28;20201;-67
2021/07/29 00:25:53;;;;;;;16.45;2.13;;;15.80;99.90;;;;;;5009992;28;20259;-67
2021/07/29 00:28:20;;;;;;;17.58;2.17;;;15.80;99.90;;;;;;5011163;28;20246;-67
2021/07/29 00:30:47;;;;;;;10.60;2.28;;;15.80;99.90;;;;;;5009464;28;20212;-67
2021/07/29 00:33:14;;;;;;;19.08;2.80;;;15.80;99.90;;;;;;5015797;28;20200;-67
2021/07/29 00:35:41;;;;;;;22.92;2.95;;;15.70;99.90;;;;;;5010996;28;20200;-66
2021/07/29 00:38:08;;;;;;;19.20;2.72;;;15.70;99.90;;;;;;5013936;28;20274;-67
2021/07/29 00:40:36;;;;;;;25.58;3.00;;;15.70;99.90;;;;;;5012864;28;20197;-65
2021/07/29 00:43:03;;;;;;;22.85;3.60;;;15.70;99.90;;;;;;5011983;28;20204;-67
2021/07/29 00:45:30;;;;;;;25.42;3.05;;;15.70;99.90;;;;;;5012068;28;20204;-66
2021/07/29 00:47:57;;;;;;;15.10;3.08;;;15.70;99.90;;;;;;5013107;28;20205;-67
2021/07/29 00:50:24;;;;;;;18.95;3.17;;;15.70;99.90;;;;;;5014056;28;20227;-67
2021/07/29 00:52:52;;;;;;;22.42;4.13;;;15.70;99.90;;;;;;5012085;28;20259;-67
2021/07/29 00:55:21;;;;;;;24.95;4.10;;;15.70;99.90;;;;;;5016622;28;20850;-67
2021/07/29 00:57:49;;;;;;;29.50;4.07;;;15.80;99.90;;;;;;5002516;28;20275;-65
2021/07/29 01:00:17;;;;;;;14.50;3.03;;;15.80;99.90;;;;;;5010268;28;20196;-66
2021/07/29 01:02:44;;;;;;;18.13;2.88;;;15.80;99.90;;;;;;5013851;28;21053;-67
2021/07/29 01:05:11;;;;;;;20.98;2.88;;;15.80;99.90;;;;;;5018519;28;20216;-67
2021/07/29 01:07:38;;;;;;;28.95;2.72;;;15.70;99.90;;;;;;5013631;28;20204;-65
2021/07/29 01:10:06;;;;;;;25.15;2.88;;;15.60;99.90;;;;;;5016453;28;20268;-67
2021/07/29 01:12:34;;;;;;;20.88;2.65;;;15.60;99.90;;;;;;5018518;28;20203;-66
2021/07/29 01:15:02;;;;;;;27.02;3.08;;;15.50;99.90;;;;;;5018196;28;20291;-67
2021/07/29 01:17:31;;;;;;;26.98;2.72;;;15.40;99.90;;;;;;5013116;28;20220;-66
2021/07/29 01:19:59;;;;;;;32.30;3.95;;;15.40;99.90;;;;;;5008724;28;20223;-66
2021/07/29 01:22:32;;;;;;;34.65;4.13;;;15.40;99.90;;;;;;5001314;28;20292;-68
2021/07/29 01:24:59;;;;;;;24.00;3.08;;;15.40;99.90;;;;;;5010434;28;20200;-65
2021/07/29 01:27:29;;;;;;;19.83;3.10;;;15.40;99.90;;;;;;5007301;28;20976;-66
2021/07/29 01:29:58;;;;;;;12.00;2.33;;;15.30;99.90;;;;;;5010840;28;20205;-66
2021/07/29 01:32:25;;;;;;;18.38;2.47;;;15.20;99.90;;;;;;4995565;28;20294;-66
2021/07/29 01:34:52;;;;;;;21.13;3.10;;;15.10;99.90;;;;;;5010497;28;20696;-65
2021/07/29 01:37:19;;;;;;;18.92;2.95;;;15.00;99.90;;;;;;5012713;28;20806;-65
2021/07/29 01:39:47;;;;;;;25.00;3.70;;;14.90;99.90;;;;;;4992800;28;20213;-63
2021/07/29 01:42:14;;;;;;;26.63;4.28;;;14.90;99.90;;;;;;5010060;28;20196;-63
2021/07/29 01:44:40;;;;;;;24.80;4.25;;;14.90;99.90;;;;;;5011653;28;20258;-64
2021/07/29 01:47:07;;;;;;;22.80;4.60;;;14.90;99.90;;;;;;5011763;28;20310;-64
2021/07/29 01:49:34;;;;;;;23.83;4.20;;;14.90;99.90;;;;;;5008979;28;20230;-65
2021/07/29 01:52:01;;;;;;;31.08;4.63;;;14.90;99.90;;;;;;5010478;28;20270;-66
2021/07/29 01:54:28;;;;;;;20.20;4.35;;;15.00;99.90;;;;;;5012880;28;20679;-65
2021/07/29 01:56:56;;;;;;;15.75;3.13;;;15.00;99.90;;;;;;5011428;28;20200;-64
2021/07/29 01:59:23;;;;;;;19.00;2.90;;;15.00;99.90;;;;;;5013030;28;20255;-64
2021/07/29 02:01:50;;;;;;;20.25;3.28;;;15.00;99.90;;;;;;5007277;28;20717;-66
2021/07/29 02:04:17;;;;;;;17.95;2.58;;;15.00;99.90;;;;;;5009215;28;20278;-66
2021/07/29 02:06:43;;;;;;;14.30;2.90;;;14.90;99.90;;;;;;5011688;28;20314;-66
2021/07/29 02:09:10;;;;;;;23.95;2.58;;;14.90;99.90;;;;;;5011121;28;20642;-66
2021/07/29 02:11:37;;;;;;;17.40;2.88;;;14.90;99.90;;;;;;5008700;28;20275;-65
2021/07/29 02:14:06;;;;;;;20.80;2.65;;;14.80;99.90;;;;;;5011549;28;20204;-66
2021/07/29 02:16:33;;;;;;;12.18;2.33;;;14.80;99.90;;;;;;5012005;28;20276;-66
2021/07/29 02:19:00;;;;;;;17.25;2.60;;;14.80;99.90;;;;;;5009569;28;20283;-66
2021/07/29 02:21:26;;;;;;;20.88;2.45;;;14.70;99.90;;;;;;5008750;28;20263;-66
2021/07/29 02:23:53;;;;;;;13.52;2.15;;;14.70;99.90;;;;;;5009517;28;20189;-66
2021/07/29 02:26:20;;;;;;;11.52;2.28;;;14.70;99.90;;;;;;5010261;28;20254;-66
2021/07/29 02:28:47;;;;;;;12.23;2.17;;;14.70;99.90;;;;;;5009398;28;20207;-65
2021/07/29 02:31:15;;;;;;;13.90;2.17;;;14.70;99.90;;;;;;5010648;28;20208;-66
2021/07/29 02:33:42;;;;;;;10.50;1.88;;;14.60;99.90;;;;;;5010822;28;20562;-66
2021/07/29 02:36:09;;;;;;;10.35;1.80;;;14.60;99.90;;;;;;4989637;28;20734;-65
2021/07/29 02:38:35;;;;;;;11.07;1.75;;;14.60;99.90;;;;;;5002675;28;20650;-65
2021/07/29 02:41:02;;;;;;;8.18;1.75;;;14.60;99.90;;;;;;5007765;28;20204;-66
2021/07/29 02:43:29;;;;;;;7.57;1.75;;;14.60;99.90;;;;;;5010730;28;20649;-65
2021/07/29 02:45:56;;;;;;;10.68;1.88;;;14.60;99.90;;;;;;5010893;28;20197;-65
2021/07/29 02:48:24;;;;;;;7.85;1.85;;;14.60;99.90;;;;;;5005786;28;20611;-66
2021/07/29 02:50:54;;;;;;;6.90;1.90;;;14.60;99.90;;;;;;5009166;28;20290;-66
2021/07/29 02:53:22;;;;;;;6.85;1.90;;;14.60;99.90;;;;;;5009283;28;20290;-65
2021/07/29 02:55:49;;;;;;;9.50;2.08;;;14.60;99.90;;;;;;5009646;28;20200;-65
2021/07/29 02:58:16;;;;;;;13.80;2.33;;;14.60;99.90;;;;;;5008736;28;20299;-65
2021/07/29 03:00:43;;;;;;;8.05;2.33;;;14.60;99.90;;;;;;5003661;28;20274;-66
2021/07/29 03:03:09;;;;;;;10.00;2.13;;;14.60;99.90;;;;;;5010006;28;20192;-64
2021/07/29 03:05:38;;;;;;;8.60;1.90;;;14.60;99.90;;;;;;5009247;28;20205;-65
2021/07/29 03:08:05;;;;;;;16.92;2.22;;;14.60;99.90;;;;;;5008754;28;20188;-64
2021/07/29 03:10:32;;;;;;;7.32;1.88;;;14.60;99.90;;;;;;5009692;28;20208;-65
2021/07/29 03:13:01;;;;;;;12.05;2.10;;;14.60;99.90;;;;;;5009666;28;20219;-65
2021/07/29 03:15:30;;;;;;;18.70;2.20;;;14.60;99.90;;;;;;5007407;28;20217;-65
2021/07/29 03:17:57;;;;;;;11.63;2.20;;;14.60;99.90;;;;;;5009734;28;20215;-65
2021/07/29 03:20:24;;;;;;;9.45;1.95;;;14.70;99.90;;;;;;5007209;28;20204;-65
2021/07/29 03:22:52;;;;;;;10.15;2.45;;;14.60;99.90;;;;;;5007507;28;20215;-65
2021/07/29 03:25:19;;;;;;;19.27;2.33;;;14.70;99.90;;;;;;5009195;28;20220;-66
2021/07/29 03:27:46;;;;;;;11.15;2.53;;;14.70;99.90;;;;;;4992580;28;20204;-64
2021/07/29 03:30:13;;;;;;;14.82;2.70;;;14.80;99.90;;;;;;5005560;28;20215;-65
2021/07/29 03:32:40;;;;;;;14.50;2.90;;;14.80;99.90;;;;;;5009149;28;20759;-65
2021/07/29 03:35:08;;;;;;;16.63;2.78;;;14.80;99.90;;;;;;5008179;28;20208;-65
2021/07/29 03:37:35;;;;;;;13.00;2.75;;;14.80;99.90;;;;;;5006604;28;20258;-66
2021/07/29 03:40:06;;;;;;;13.70;2.50;;;14.90;99.90;;;;;;5007791;28;20208;-67
2021/07/29 03:42:34;;;;;;;18.33;2.92;;;14.90;99.90;;;;;;5007498;28;20208;-65
2021/07/29 03:45:02;;;;;;;16.60;2.58;;;14.80;99.90;;;;;;5008938;28;20839;-66
2021/07/29 03:47:28;;;;;;;18.00;2.90;;;14.80;99.90;;;;;;5006783;28;20657;-67
2021/07/29 03:49:56;;;;;;;16.15;2.78;;;14.80;99.90;;;;;;5009678;28;20228;-66
2021/07/29 03:52:22;;;;;;;11.52;2.28;;;14.80;99.90;;;;;;5007909;28;20196;-66
2021/07/29 03:54:51;;;;;;;11.10;2.50;;;14.80;99.90;;;;;;5007231;28;20223;-67
2021/07/29 03:57:22;;;;;;;13.35;2.45;;;14.80;99.90;;;;;;5009130;28;20204;-66
2021/07/29 03:59:49;;;;;;;9.57;2.42;;;14.80;99.90;;;;;;5008905;28;20230;-68
2021/07/29 04:02:16;;;;;;;14.40;2.20;;;14.80;99.90;;;;;;5004475;28;20196;-66
2021/07/29 04:04:43;;;;;;;14.80;2.80;;;14.80;99.90;;;;;;5008986;28;20212;-68
2021/07/29 04:07:10;;;;;;;12.65;2.17;;;14.80;99.90;;;;;;5009369;28;20212;-66
2021/07/29 04:09:37;;;;;;;12.25;2.60;;;14.80;99.90;;;;;;5006851;28;20197;-67
2021/07/29 04:12:05;;;;;;;12.10;2.45;;;14.80;99.90;;;;;;5007213;28;20627;-67
2021/07/29 04:14:33;;;;;;;10.63;2.60;;;14.80;99.90;;;;;;5008368;28;20261;-65
2021/07/29 04:16:59;;;;;;;15.60;2.50;;;14.80;99.90;;;;;;5007508;28;20224;-67
2021/07/29 04:19:27;;;;;;;12.73;2.47;;;14.80;99.90;;;;;;5007442;28;20631;-66
2021/07/29 04:21:54;;;;;;;15.25;2.33;;;14.80;99.90;;;;;;5008100;28;20298;-68
2021/07/29 04:24:21;;;;;;;13.00;2.67;;;14.90;99.90;;;;;;5008388;28;20223;-67
2021/07/29 04:26:47;;;;;;;15.35;2.50;;;14.80;99.90;;;;;;5008215;28;20255;-67
2021/07/29 04:29:14;;;;;;;12.55;2.10;;;14.90;99.90;;;;;;4993467;28;20275;-67
2021/07/29 04:31:42;;;;;;;12.35;2.40;;;14.90;99.90;;;;;;5009296;28;20204;-67
2021/07/29 04:34:09;;;;;;;10.02;2.53;;;14.90;99.90;;;;;;5007648;28;20614;-66
2021/07/29 04:36:40;;;;;;;14.18;2.80;;;15.00;99.90;;;;;;5006606;28;20217;-66
2021/07/29 04:39:07;;;;;;;17.80;2.63;;;15.00;99.90;;;;;;5010604;28;20224;-66
2021/07/29 04:41:34;;;;;;;13.75;2.50;;;15.00;99.90;;;;;;5011736;28;20208;-66
2021/07/29 04:44:01;;;;;;;13.45;2.58;;;15.00;99.90;;;;;;5013649;28;20694;-67
2021/07/29 04:46:28;;;;;;;12.10;2.60;;;15.10;99.90;;;;;;5011825;28;20217;-67
2021/07/29 04:48:57;;;;;;;13.02;2.50;;;15.10;99.90;;;;;;5009258;28;20201;-66
2021/07/29 04:51:24;;;;;;;14.45;2.50;;;15.10;99.90;;;;;;5008111;28;20201;-66
2021/07/29 04:53:51;;;;;;;14.57;2.75;;;15.10;99.90;;;;;;5008913;28;20212;-67
2021/07/29 04:56:18;;;;;;;13.18;2.38;;;15.20;99.90;;;;;;5010400;28;20216;-63
2021/07/29 04:58:45;;;;;;;15.43;2.67;;;15.30;99.90;;;;;;4990776;28;20286;-64
2021/07/29 05:01:11;;;;;;;12.20;2.30;;;15.30;99.90;;;;;;5005626;28;20220;-66
2021/07/29 05:03:38;;;;;;;16.80;2.63;;;15.40;99.90;;;;;;5009296;28;20209;-67
2021/07/29 05:06:06;;;;;;;12.73;3.08;;;15.40;99.90;;;;;;5010576;28;20254;-68
2021/07/29 05:08:35;;;;;;;13.35;2.45;;;15.50;99.90;;;;;;5010281;28;20204;-67
2021/07/29 05:11:03;;;;;;;19.23;2.75;;;15.50;99.90;;;;;;5012042;28;20192;-65
2021/07/29 05:13:30;;;;;;;13.07;2.47;;;15.50;99.90;;;;;;5009723;28;20283;-66
2021/07/29 05:15:57;;;;;;;17.05;3.25;;;15.50;99.90;;;;;;5012049;28;20200;-65
2021/07/29 05:18:24;;;;;;;16.20;2.40;;;15.50;99.90;;;;;;5010643;28;20734;-67
2021/07/29 05:20:51;;;;;;;12.77;2.50;;;15.50;99.90;;;;;;5010295;28;20363;-67
2021/07/29 05:23:19;;;;;;;16.48;2.83;;;15.60;99.90;;;;;;5008991;28;20653;-66
2021/07/29 05:25:46;;;;;;;13.77;2.65;;;15.60;99.90;;;;;;5011061;28;20208;-65
2021/07/29 05:28:13;;;;;;;14.93;2.80;;;15.60;99.90;;;;;;5009503;28;20290;-65
2021/07/29 05:30:40;;;;;;;10.68;2.80;;;15.70;99.90;;;;;;5011825;28;20210;-65
2021/07/29 05:33:07;;;;;;;13.50;2.88;;;15.70;99.90;;;;;;4992107;28;20239;-65
2021/07/29 05:35:34;;;;;;;10.20;3.08;;;15.70;99.90;;;;;;5010982;28;20197;-67
2021/07/29 05:38:00;;;;;;;12.13;2.90;;;15.60;99.90;;;;;;5011974;28;20199;-65
2021/07/29 05:40:29;;;;;;;9.07;2.47;;;15.50;99.90;;;;;;5010937;28;20212;-65
2021/07/29 05:42:56;;;;;;;11.07;2.30;;;15.30;99.90;;;;;;5009635;28;20283;-66
2021/07/29 05:45:23;;;;;;;14.80;2.83;;;15.10;99.90;;;;;;5012267;28;20204;-67
2021/07/29 05:47:49;;;;;;;11.05;2.88;;;15.00;99.90;;;;;;5010738;28;20205;-66
2021/07/29 05:50:16;;;;;;;15.85;3.92;;;15.00;99.90;;;;;;5007319;28;20228;-66
2021/07/29 05:52:43;;;;;;;12.82;3.08;;;14.90;99.90;;;;;;5008911;28;20208;-67
2021/07/29 05:55:11;;;;;;;12.35;3.15;;;14.80;99.90;;;;;;5011466;28;20212;-66
2021/07/29 05:57:39;;;;;;;24.35;3.35;;;14.80;99.90;;;;;;4997464;28;20213;-68
2021/07/29 06:00:07;;;;;;;21.75;3.80;;;14.90;99.90;;;;;;5008831;28;20781;-67
2021/07/29 06:02:35;;;;;;;18.08;3.35;;;14.90;99.90;;;;;;5008072;28;20201;-67
2021/07/29 06:05:03;;;;;;;16.13;3.80;;;14.90;99.90;;;;;;5009318;28;20290;-67
2021/07/29 06:07:30;;;;;;;18.25;3.78;;;15.00;99.90;;;;;;5006881;28;20205;-68
2021/07/29 06:09:57;;;;;;;18.63;3.53;;;15.00;99.90;;;;;;5006359;28;20212;-69
2021/07/29 06:12:27;;;;;;;15.70;3.97;;;15.10;99.90;;;;;;5006590;28;20200;-68
2021/07/29 06:14:55;;;;;;;19.17;3.58;;;15.10;99.90;;;;;;5008025;28;20204;-68
2021/07/29 06:17:27;;;;;;;15.45;2.83;;;15.20;99.90;;;;;;5008785;28;20200;-68
2021/07/29 06:19:54;;;;;;;13.27;3.10;;;15.20;99.90;;;;;;5009407;28;20309;-68
2021/07/29 06:22:21;;;;;;;11.23;2.80;;;15.30;99.90;;;;;;5008954;28;20271;-67
2021/07/29 06:24:48;;;;;;;10.77;3.03;;;15.40;99.90;;;;;;5010511;28;20262;-67
2021/07/29 06:27:14;;;;;;;20.73;3.72;;;15.40;99.90;;;;;;5009570;28;20251;-67
2021/07/29 06:29:41;;;;;;;15.88;3.53;;;15.40;99.90;;;;;;5009744;28;20696;-68
2021/07/29 06:32:10;;;;;;;16.33;3.03;;;15.50;99.90;;;;;;5007370;28;20200;-67
2021/07/29 06:34:37;;;;;;;11.13;3.13;;;15.50;99.90;;;;;;5008762;28;20201;-67
2021/07/29 06:37:04;;;;;;;18.80;3.75;;;15.60;99.90;;;;;;5010609;28;20195;-66
2021/07/29 06:39:31;;;;;;;13.27;2.97;;;15.60;99.90;;;;;;5011571;28;20242;-66
2021/07/29 06:41:58;;;;;;;14.65;3.17;;;15.70;99.90;;;;;;5005175;28;20206;-67
2021/07/29 06:44:25;;;;;;;14.18;3.47;;;15.70;99.90;;;;;;5011054;28;20551;-67
2021/07/29 06:46:52;;;;;;;16.05;3.38;;;15.80;99.90;;;;;;5011477;28;21255;-67
2021/07/29 06:49:20;;;;;;;13.60;3.28;;;15.80;99.90;;;;;;5009811;28;20219;-65
2021/07/29 06:51:47;;;;;;;12.60;3.35;;;15.80;99.90;;;;;;5005036;28;20613;-68
2021/07/29 06:54:14;;;;;;;11.32;3.08;;;15.90;99.90;;;;;;4989908;28;20209;-67
2021/07/29 06:56:41;;;;;;;14.25;3.17;;;15.90;99.90;;;;;;5009471;28;20201;-65
2021/07/29 06:59:08;;;;;;;18.05;3.05;;;16.00;99.90;;;;;;5008022;28;20628;-67
2021/07/29 07:01:36;;;;;;;14.38;3.58;;;16.00;99.90;;;;;;5006846;28;21994;-65
2021/07/29 07:04:02;;;;;;;19.23;4.47;;;16.10;99.90;;;;;;5009344;28;20196;-66
2021/07/29 07:06:33;;;;;;;16.23;3.08;;;16.10;99.90;;;;;;5010216;28;20275;-66
2021/07/29 07:09:00;;;;;;;18.17;3.58;;;16.20;99.90;;;;;;5010592;28;20208;-66
2021/07/29 07:11:26;;;;;;;12.85;3.28;;;16.30;99.90;;;;;;5010099;28;20834;-67
2021/07/29 07:13:53;;;;;;;22.40;3.80;;;16.40;99.90;;;;;;4993314;28;20204;-66
2021/07/29 07:16:20;;;;;;;11.60;3.25;;;16.50;99.90;;;;;;5011213;28;20613;-65
2021/07/29 07:18:47;;;;;;;11.70;2.83;;;16.50;99.90;;;;;;5011380;28;20602;-65
2021/07/29 07:21:14;;;;;;;13.02;3.33;;;16.60;99.90;;;;;;5013313;28;20196;-65
2021/07/29 07:23:42;;;;;;;11.63;2.83;;;16.60;99.90;;;;;;5011514;28;20267;-67
2021/07/29 07:26:16;;;;;;;11.43;3.00;;;16.60;99.90;;;;;;5014861;28;20204;-68
2021/07/29 07:28:43;;;;;;;10.52;3.03;;;16.50;99.90;;;;;;5010936;28;20212;-68
2021/07/29 07:31:10;;;;;;;17.40;4.22;;;16.50;99.90;;;;;;5009700;28;20201;-68
2021/07/29 07:33:37;;;;;;;11.95;2.50;;;16.50;99.90;;;;;;5008438;28;20212;-65
2021/07/29 07:36:04;;;;;;;12.45;3.03;;;16.50;99.90;;;;;;5008583;28;20223;-67
2021/07/29 07:38:31;;;;;;;12.25;3.33;;;16.50;99.90;;;;;;5010080;28;20209;-68
2021/07/29 07:41:04;;;;;;;18.85;3.75;;;16.60;99.90;;;;;;5007943;28;20323;-66
2021/07/29 07:43:31;;;;;;;15.25;5.10;;;16.60;99.90;;;;;;5007498;28;20209;-68
2021/07/29 07:45:58;;;;;;;11.85;3.17;;;16.70;99.90;;;;;;5008203;28;20278;-69
2021/07/29 07:48:25;;;;;;;14.20;2.97;;;16.80;99.90;;;;;;5008087;28;20193;-67
2021/07/29 07:50:53;;;;;;;13.07;3.30;;;16.80;99.90;;;;;;5008496;28;20240;-66
2021/07/29 07:53:21;;;;;;;12.52;2.90;;;16.90;99.90;;;;;;5008658;28;20196;-67
2021/07/29 07:55:48;;;;;;;14.50;3.78;;;17.00;99.90;;;;;;5009601;28;20204;-66
2021/07/29 07:58:16;;;;;;;13.35;3.08;;;17.00;99.90;;;;;;5009648;28;20212;-67
2021/07/29 08:00:43;;;;;;;10.25;2.72;;;17.10;99.90;;;;;;5009701;28;20220;-66
2021/07/29 08:03:11;;;;;;;17.17;2.80;;;17.10;99.90;;;;;;5010030;28;20285;-67
2021/07/29 08:05:38;;;;;;;10.82;2.53;;;17.20;99.90;;;;;;5006783;28;20219;-67
2021/07/29 08:08:07;;;;;;;10.75;2.30;;;17.20;99.90;;;;;;5006574;28;20208;-67
2021/07/29 08:10:34;;;;;;;12.63;2.70;;;17.30;99.90;;;;;;5008862;28;20279;-66
2021/07/29 08:13:01;;;;;;;9.48;2.60;;;17.30;99.90;;;;;;5004422;28;20204;-66
2021/07/29 08:15:29;;;;;;;15.50;2.90;;;17.40;99.90;;;;;;5008371;28;20739;-66
2021/07/29 08:17:56;;;;;;;10.07;2.47;;;17.40;99.90;;;;;;5007874;28;20224;-66
2021/07/29 08:20:24;;;;;;;8.30;2.53;;;17.40;99.90;;;;;;5011818;28;20223;-67
2021/07/29 08:22:51;;;;;;;14.73;2.50;;;17.50;99.90;;;;;;5009081;28;20267;-68
2021/07/29 08:25:19;;;;;;;10.90;2.97;;;17.50;99.90;;;;;;5010365;28;20666;-68
2021/07/29 08:27:46;;;;;;;10.70;3.30;;;17.60;99.90;;;;;;5011125;28;20275;-67
2021/07/29 08:30:14;;;;;;;9.73;2.72;;;17.70;99.90;;;;;;5010542;28;20674;-68
2021/07/29 08:32:42;;;;;;;15.60;2.92;;;17.80;99.90;;;;;;5012798;28;20211;-67
2021/07/29 08:35:09;;;;;;;12.07;2.65;;;18.10;99.90;;;;;;5010706;28;20219;-69
2021/07/29 08:37:36;;;;;;;10.18;2.55;;;18.50;99.90;;;;;;5013389;28;20200;-68
2021/07/29 08:40:03;;;;;;;9.35;2.30;;;19.00;99.90;;;;;;5012206;28;20617;-69
2021/07/29 08:42:32;;;;;;;5.97;2.05;;;19.60;98.70;;;;;;5014004;28;20213;-68
2021/07/29 08:44:59;;;;;;;10.27;2.60;;;20.20;96.90;;;;;;5013014;28;20598;-64
2021/07/29 08:47:31;;;;;;;8.23;2.25;;;20.80;95.40;;;;;;5005579;28;20711;-67
2021/07/29 08:50:04;;;;;;;10.77;2.35;;;21.00;93.50;;;;;;5007640;28;20644;-68
2021/07/29 08:52:31;;;;;;;8.25;2.30;;;21.00;92.50;;;;;;5010327;28;20236;-69
2021/07/29 08:54:58;;;;;;;8.00;2.60;;;21.00;91.90;;;;;;5008497;28;20295;-69
2021/07/29 08:57:27;;;;;;;10.25;3.00;;;20.80;91.20;;;;;;5007511;28;20216;-69
2021/07/29 08:59:54;;;;;;;16.55;3.05;;;20.40;91.00;;;;;;5011543;28;20212;-71
2021/07/29 09:02:25;;;;;;;9.35;3.10;;;20.10;91.40;;;;;;5010113;28;20208;-69
2021/07/29 09:05:11;;;;;;;13.70;2.75;;;20.10;92.00;;;;;;4993892;28;20208;-69
2021/07/29 09:07:38;;;;;;;9.05;2.42;;;20.40;92.10;;;;;;5010196;28;20266;-69
2021/07/29 09:10:19;;;;;;;9.57;2.60;;;20.70;91.80;;;;;;5012738;28;20200;-69
2021/07/29 09:12:46;;;;;;;7.60;2.45;;;20.80;90.50;;;;;;5011542;28;20579;-69
2021/07/29 09:15:20;;;;;;;10.27;2.60;;;20.50;90.30;;;;;;5013029;28;20649;-70
2021/07/29 09:17:47;;;;;;;14.73;2.90;;;20.10;90.30;;;;;;5013180;28;20617;-69
2021/07/29 09:20:19;;;;;;;11.60;2.65;;;19.80;90.60;;;;;;5013132;28;20232;-69
2021/07/29 09:22:49;;;;;;;11.85;2.78;;;20.10;91.10;;;;;;5011154;28;20260;-69
2021/07/29 09:25:17;;;;;;;9.10;2.70;;;20.80;90.70;;;;;;5013212;28;20208;-70
2021/07/29 09:27:49;;;;;;;13.13;2.97;;;21.00;89.30;;;;;;5006962;28;20749;-68
2021/07/29 09:30:19;;;;;;;13.80;2.72;;;20.90;89.30;;;;;;5009399;28;20216;-67
2021/07/29 09:33:00;;;;;;;12.38;2.83;;;20.80;89.30;;;;;;5010223;28;20255;-68
2021/07/29 09:35:45;;;;;;;20.10;3.10;;;20.50;89.60;;;;;;5011152;28;20196;-67
2021/07/29 09:38:20;;;;;;;13.82;2.78;;;20.30;90.30;;;;;;5007356;28;20217;-67
2021/07/29 09:40:51;;;;;;;16.30;3.03;;;20.20;90.50;;;;;;5009066;28;20220;-68
2021/07/29 09:43:19;;;;;;;14.05;3.25;;;20.00;90.30;;;;;;5010284;28;20209;-68
2021/07/29 09:45:47;;;;;;;17.85;2.90;;;19.90;90.10;;;;;;5013718;28;20200;-67
2021/07/29 09:48:17;;;;;;;8.88;2.83;;;19.80;90.20;;;;;;5012501;28;20635;-69
2021/07/29 09:50:46;;;;;;;12.02;3.25;;;19.90;90.50;;;;;;5010994;28;20264;-70
2021/07/29 09:53:13;;;;;;;14.13;2.70;;;20.30;90.20;;;;;;5012035;28;20209;-69
2021/07/29 09:55:40;;;;;;;10.98;2.78;;;20.60;88.90;;;;;;5010386;28;20197;-68
2021/07/29 09:58:08;;;;;;;12.75;2.97;;;20.90;88.40;;;;;;5010343;28;20208;-68
2021/07/29 10:00:37;;;;;;;11.20;3.00;;;21.60;87.80;;;;;;5010823;28;20227;-68
2021/07/29 10:03:06;;;;;;;11.13;2.30;;;22.50;85.40;;;;;;4992781;28;20212;-68
2021/07/29 10:05:41;;;;;;;13.45;2.72;;;23.10;82.40;;;;;;5013145;28;20772;-69
2021/07/29 10:08:15;;;;;;;9.60;2.50;;;23.50;80.00;;;;;;5009717;28;20211;-66
2021/07/29 10:10:44;;;;;;;11.75;2.63;;;23.80;78.80;;;;;;5011769;28;20206;-71
2021/07/29 10:13:11;;;;;;;9.60;2.53;;;24.30;77.40;;;;;;5011293;28;20215;-71
2021/07/29 10:15:39;;;;;;;12.68;2.70;;;24.70;74.90;;;;;;5011552;28;20211;-72
2021/07/29 10:18:07;;;;;;;9.20;2.60;;;24.70;73.10;;;;;;5011292;28;20208;-67
2021/07/29 10:20:35;;;;;;;10.40;2.40;;;24.80;71.90;;;;;;5011462;28;20240;-72
2021/07/29 10:23:28;;;;;;;9.80;2.60;;;25.20;69.80;;;;;;5012611;28;20581;-72
2021/07/29 10:26:10;;;;;;;11.63;2.47;;;25.40;66.10;;;;;;4985642;28;20207;-68
2021/07/29 10:28:39;;;;;;;10.80;2.38;;;25.40;67.00;;;;;;5013818;28;20207;-67
2021/07/29 10:31:08;;;;;;;9.75;2.40;;;25.40;66.90;;;;;;5008574;28;20232;-67
2021/07/29 10:33:35;;;;;;;9.27;2.47;;;25.50;66.20;;;;;;5014008;28;20208;-66
2021/07/29 10:36:03;;;;;;;8.73;2.40;;;25.40;65.30;;;;;;5009476;28;20204;-68
2021/07/29 10:38:46;;;;;;;8.48;2.13;;;25.20;65.60;;;;;;5013196;28;20664;-68
2021/07/29 10:41:44;;;;;;;7.32;2.50;;;24.90;65.40;;;;;;5011938;28;20239;-68
2021/07/29 10:44:56;;;;;;;10.00;2.42;;;25.00;66.40;;;;;;5012525;28;20214;-66
2021/07/29 10:47:44;;;;;;;8.32;2.20;;;25.40;63.10;;;;;;5012190;28;21676;-68
2021/07/29 10:50:15;;;;;;;12.70;2.65;;;25.30;61.80;;;;;;5008458;28;20314;-67
2021/07/29 10:52:46;;;;;;;9.23;2.28;;;25.00;63.80;;;;;;5013457;28;20207;-65
2021/07/29 10:55:15;;;;;;;10.15;2.20;;;24.90;63.90;;;;;;5007323;28;20294;-68
2021/07/29 10:57:42;;;;;;;10.32;2.17;;;25.00;63.60;;;;;;5013262;28;20211;-67
2021/07/29 11:00:09;;;;;;;9.20;2.10;;;25.40;62.90;;;;;;5009379;28;20226;-68
2021/07/29 11:02:47;;;;;;;10.52;2.22;;;25.60;61.20;;;;;;4987561;28;20208;-68
2021/07/29 11:05:20;;;;;;;11.43;2.38;;;25.80;60.70;;;;;;5007797;28;20637;-67
2021/07/29 11:07:48;;;;;;;13.13;2.15;;;26.00;60.00;;;;;;4990364;28;20295;-69
2021/07/29 11:10:21;;;;;;;9.07;2.30;;;26.00;59.70;;;;;;5010042;28;20204;-67
2021/07/29 11:12:49;;;;;;;9.88;2.22;;;25.90;59.10;;;;;;5009824;28;20204;-72
2021/07/29 11:15:16;;;;;;;9.45;2.13;;;25.70;59.60;;;;;;5009234;28;20208;-69
2021/07/29 11:17:43;;;;;;;6.47;2.00;;;25.70;59.50;;;;;;5011369;28;20199;-69
2021/07/29 11:20:11;;;;;;;9.93;2.33;;;25.90;59.10;;;;;;5009144;28;20219;-68
2021/07/29 11:22:49;;;;;;;9.00;2.15;;;26.00;58.90;;;;;;5012429;28;20278;-68
2021/07/29 11:25:17;;;;;;;11.57;2.33;;;26.20;58.70;;;;;;5010997;28;20216;-67
2021/07/29 11:27:44;;;;;;;8.88;2.38;;;26.40;58.50;;;;;;5012765;28;20585;-71
2021/07/29 11:30:12;;;;;;;14.57;2.63;;;26.40;57.80;;;;;;5009370;28;20207;-68
2021/07/29 11:32:41;;;;;;;9.93;2.33;;;26.50;57.80;;;;;;5006627;28;20212;-67
2021/07/29 11:35:11;;;;;;;10.98;2.50;;;26.40;57.70;;;;;;5011400;28;20200;-69
2021/07/29 11:37:40;;;;;;;11.50;2.60;;;26.20;57.40;;;;;;5005599;28;20593;-69
2021/07/29 11:40:16;;;;;;;9.95;2.15;;;26.30;57.80;;;;;;5010188;28;20676;-68
2021/07/29 11:42:44;;;;;;;7.80;2.25;;;26.30;57.70;;;;;;4992123;28;20214;-68
2021/07/29 11:45:23;;;;;;;9.55;2.45;;;26.50;57.70;;;;;;5007345;28;20207;-66
2021/07/29 11:47:50;;;;;;;10.63;3.15;;;26.90;57.10;;;;;;5013280;28;20289;-66
2021/07/29 11:50:17;;;;;;;14.13;2.45;;;27.20;55.90;;;;;;5007156;28;20326;-68
2021/07/29 11:52:52;;;;;;;9.13;2.55;;;27.40;55.20;;;;;;5006061;28;20200;-69
2021/07/29 11:55:20;;;;;;;9.00;2.40;;;27.20;54.80;;;;;;5008665;28;20273;-70
2021/07/29 11:57:49;;;;;;;13.68;3.03;;;27.30;54.80;;;;;;5009298;28;20631;-69
2021/07/29 12:00:27;;;;;;;9.48;2.60;;;27.30;54.70;;;;;;5002045;28;20295;-67
2021/07/29 12:02:55;;;;;;;7.88;2.42;;;26.80;55.10;;;;;;5007476;28;20302;-68
2021/07/29 12:05:23;;;;;;;13.23;2.70;;;26.30;56.30;;;;;;5010177;28;20215;-67
2021/07/29 12:07:50;;;;;;;10.02;2.25;;;25.90;57.50;;;;;;5008569;28;20208;-67
2021/07/29 12:10:18;;;;;;;15.70;2.60;;;25.80;57.90;;;;;;5010167;28;20258;-68
2021/07/29 12:12:45;;;;;;;8.75;2.22;;;25.90;58.10;;;;;;5008534;28;20623;-67
2021/07/29 12:15:15;;;;;;;10.93;2.50;;;26.00;58.40;;;;;;4992520;28;20200;-68
2021/07/29 12:17:42;;;;;;;12.73;2.75;;;26.00;58.10;;;;;;5006456;28;20204;-68
2021/07/29 12:20:12;;;;;;;14.52;2.55;;;25.90;57.70;;;;;;5009150;28;20215;-66
2021/07/29 12:22:42;;;;;;;12.23;2.75;;;25.70;57.70;;;;;;5004076;28;20311;-66
2021/07/29 12:25:11;;;;;;;11.77;2.25;;;25.80;58.60;;;;;;5013587;28;20216;-69
2021/07/29 12:27:44;;;;;;;13.15;2.53;;;25.90;58.30;;;;;;5009679;28;20215;-68
2021/07/29 12:30:35;;;;;;;9.40;2.05;;;26.00;57.50;;;;;;5008391;28;20266;-65
2021/07/29 12:33:10;;;;;;;8.02;2.33;;;25.90;56.80;;;;;;5012779;28;20199;-65
2021/07/29 12:35:37;;;;;;;12.18;2.53;;;25.80;57.40;;;;;;5012723;28;20213;-69
2021/07/29 12:38:04;;;;;;;11.15;2.30;;;25.80;58.00;;;;;;5010823;28;20228;-69
2021/07/29 12:40:32;;;;;;;9.00;2.22;;;25.90;57.40;;;;;;5011996;28;20204;-68
2021/07/29 12:43:21;;;;;;;11.40;2.10;;;25.90;56.90;;;;;;5012869;28;20622;-70
2021/07/29 12:45:52;;;;;;;9.65;2.33;;;25.90;56.30;;;;;;5013097;28;20196;-70
2021/07/29 12:48:18;;;;;;;10.80;2.13;;;25.80;56.00;;;;;;5012543;28;20279;-69